Time;durP1;ratioP1;P1;durP2;ratioP2;P2;SDS_P1;SDS_P2;PMS_P1;PMS_P2;Temp;Humidity;BMP_temperature;BMP_pressure;BME280_temperature;BME280_humidity;BME280_pressure;Samples;Min_cycle;Max_cycle;Signal;HPM_P1;HPM_P2
2022/04/29 00:00:38;;;;;;;16.35;3.53;;;;;;;;;;5017084;28;92440;-67
2022/04/29 00:03:08;;;;;;;10.25;3.65;;;;;;;;;;5017088;28;93138;-67
2022/04/29 00:05:40;;;;;;;19.42;4.75;;;;;;;;;;5018183;28;95961;-67
2022/04/29 00:08:07;;;;;;;14.57;4.60;;;;;;;;;;5017080;28;96698;-68
2022/04/29 00:10:34;;;;;;;19.02;4.65;;;;;;;;;;5016936;28;93267;-67
2022/04/29 00:13:01;;;;;;;17.58;5.07;;;;;;;;;;5016874;28;92431;-66
2022/04/29 00:15:28;;;;;;;12.07;4.18;;;;;;;;;;5012207;28;94219;-66
2022/04/29 00:17:55;;;;;;;9.70;3.38;;;;;;;;;;4996769;28;93241;-67
2022/04/29 00:20:21;;;;;;;16.40;4.50;;;;;;;;;;4996723;28;92312;-67
2022/04/29 00:22:47;;;;;;;9.57;3.75;;;;;;;;;;4996986;28;93226;-68
2022/04/29 00:25:14;;;;;;;10.65;3.47;;;;;;;;;;4996815;28;94334;-66
2022/04/29 00:27:41;;;;;;;11.30;4.22;;;;;;;;;;4999962;28;92375;-66
2022/04/29 00:30:08;;;;;;;7.63;4.32;;;;;;;;;;4984391;28;96935;-67
2022/04/29 00:32:35;;;;;;;12.50;4.28;;;;;;;;;;4976789;28;92491;-66
2022/04/29 00:35:02;;;;;;;12.43;4.43;;;;;;;;;;4976427;28;93358;-66
2022/04/29 00:37:28;;;;;;;10.38;4.18;;;;;;;;;;4976561;28;93370;-66
2022/04/29 00:39:54;;;;;;;13.32;4.22;;;;;;;;;;4976765;28;92421;-66
2022/04/29 00:42:21;;;;;;;13.18;4.18;;;;;;;;;;4976674;28;93217;-67
2022/04/29 00:44:48;;;;;;;14.30;4.68;;;;;;;;;;4976617;28;93539;-66
2022/04/29 00:47:15;;;;;;;9.35;4.25;;;;;;;;;;4996359;28;91907;-67
2022/04/29 00:49:42;;;;;;;10.68;4.03;;;;;;;;;;4999476;28;93369;-67
2022/04/29 00:52:14;;;;;;;12.13;4.10;;;;;;;;;;4996471;28;93387;-66
2022/04/29 00:54:42;;;;;;;12.55;4.15;;;;;;;;;;4997408;28;95104;-66
2022/04/29 00:57:14;;;;;;;8.30;3.95;;;;;;;;;;5015917;28;93747;-66
2022/04/29 01:00:19;;;;;;;17.40;4.60;;;;;;;;;;5016158;28;92567;-67
2022/04/29 01:02:48;;;;;;;13.88;4.75;;;;;;;;;;4934202;28;93424;-67
2022/04/29 01:05:16;;;;;;;16.35;4.18;;;;;;;;;;4934774;28;94441;-66
2022/04/29 01:07:43;;;;;;;15.77;4.78;;;;;;;;;;4934486;28;92486;-67
2022/04/29 01:10:10;;;;;;;11.23;4.47;;;;;;;;;;4935041;28;94126;-67
2022/04/29 01:12:37;;;;;;;16.27;4.40;;;;;;;;;;4938433;28;93725;-66
2022/04/29 01:15:09;;;;;;;11.63;4.10;;;;;;;;;;4932931;28;92516;-66
2022/04/29 01:17:37;;;;;;;12.40;4.35;;;;;;;;;;4915305;28;93523;-66
2022/04/29 01:20:04;;;;;;;21.80;5.03;;;;;;;;;;4913726;28;95234;-66
2022/04/29 01:22:31;;;;;;;11.75;4.75;;;;;;;;;;4915276;28;95576;-66
2022/04/29 01:24:57;;;;;;;14.85;4.40;;;;;;;;;;4914860;28;93618;-66
2022/04/29 01:27:24;;;;;;;14.43;4.82;;;;;;;;;;4914887;28;92612;-66
2022/04/29 01:29:55;;;;;;;21.48;4.32;;;;;;;;;;4914981;28;92992;-66
2022/04/29 01:32:21;;;;;;;15.98;4.53;;;;;;;;;;4914881;28;93695;-67
2022/04/29 01:34:48;;;;;;;10.15;4.57;;;;;;;;;;4997836;28;92426;-66
2022/04/29 01:37:15;;;;;;;13.75;4.85;;;;;;;;;;4996138;28;92497;-66
2022/04/29 01:39:42;;;;;;;10.05;4.50;;;;;;;;;;4995696;28;92411;-66
2022/04/29 01:42:08;;;;;;;13.63;5.05;;;;;;;;;;4995078;28;93161;-66
2022/04/29 01:44:34;;;;;;;20.08;4.50;;;;;;;;;;4993673;28;95827;-66
2022/04/29 01:47:01;;;;;;;16.85;4.82;;;;;;;;;;4995755;28;92405;-67
2022/04/29 01:49:27;;;;;;;14.00;5.10;;;;;;;;;;4995196;28;93546;-67
2022/04/29 01:51:55;;;;;;;11.88;5.20;;;;;;;;;;4995000;28;92378;-67
2022/04/29 01:54:21;;;;;;;9.23;4.85;;;;;;;;;;4998550;28;92432;-67
2022/04/29 01:56:49;;;;;;;14.70;5.00;;;;;;;;;;5015169;28;94552;-67
2022/04/29 01:59:16;;;;;;;14.75;5.30;;;;;;;;;;5015214;28;92480;-66
2022/04/29 02:01:42;;;;;;;15.80;5.63;;;;;;;;;;5016173;28;93681;-67
2022/04/29 02:04:09;;;;;;;9.82;5.05;;;;;;;;;;5029950;28;93509;-66
2022/04/29 02:06:37;;;;;;;10.40;4.95;;;;;;;;;;5014826;28;92473;-66
2022/04/29 02:09:04;;;;;;;10.25;4.88;;;;;;;;;;5013297;28;94805;-67
2022/04/29 02:11:30;;;;;;;17.60;4.90;;;;;;;;;;5015011;28;93535;-66
2022/04/29 02:13:56;;;;;;;12.55;4.53;;;;;;;;;;5014228;28;92559;-67
2022/04/29 02:16:23;;;;;;;17.60;5.47;;;;;;;;;;5004994;28;92651;-66
2022/04/29 02:18:49;;;;;;;13.98;5.40;;;;;;;;;;4994960;28;92443;-66
2022/04/29 02:21:15;;;;;;;21.80;5.82;;;;;;;;;;4994958;28;93000;-66
2022/04/29 02:23:42;;;;;;;13.25;5.15;;;;;;;;;;4994445;28;92510;-67
2022/04/29 02:26:08;;;;;;;19.95;6.05;;;;;;;;;;4995178;28;91721;-66
2022/04/29 02:28:35;;;;;;;19.48;4.95;;;;;;;;;;4994915;28;92446;-67
2022/04/29 02:31:01;;;;;;;14.18;5.25;;;;;;;;;;4994608;28;92771;-66
2022/04/29 02:33:28;;;;;;;18.80;6.28;;;;;;;;;;4993155;28;94828;-66
2022/04/29 02:35:54;;;;;;;15.90;5.60;;;;;;;;;;4994158;28;95441;-66
2022/04/29 02:38:21;;;;;;;15.50;5.22;;;;;;;;;;4997646;28;92821;-66
2022/04/29 02:40:50;;;;;;;10.75;5.50;;;;;;;;;;4994600;28;93300;-66
2022/04/29 02:43:17;;;;;;;17.90;5.97;;;;;;;;;;4994708;28;94438;-66
2022/04/29 02:45:44;;;;;;;19.08;5.15;;;;;;;;;;4994341;28;92501;-66
2022/04/29 02:48:10;;;;;;;16.52;5.72;;;;;;;;;;4994890;28;94397;-66
2022/04/29 02:50:36;;;;;;;17.33;5.82;;;;;;;;;;4994931;28;92532;-66
2022/04/29 02:53:03;;;;;;;12.82;4.88;;;;;;;;;;4994592;28;92486;-66
2022/04/29 02:55:29;;;;;;;12.65;5.18;;;;;;;;;;5003760;28;93209;-66
2022/04/29 02:57:55;;;;;;;14.65;7.00;;;;;;;;;;5012831;28;96555;-66
2022/04/29 03:00:21;;;;;;;16.02;5.53;;;;;;;;;;5017370;28;92798;-67
2022/04/29 03:02:48;;;;;;;19.38;5.53;;;;;;;;;;5014197;28;93149;-67
2022/04/29 03:05:14;;;;;;;15.20;5.68;;;;;;;;;;5014114;28;92848;-66
2022/04/29 03:07:40;;;;;;;16.52;6.95;;;;;;;;;;5014549;28;94204;-66
2022/04/29 03:10:07;;;;;;;13.05;5.75;;;;;;;;;;5014171;28;93458;-66
2022/04/29 03:12:36;;;;;;;12.82;5.93;;;;;;;;;;5014187;28;92451;-67
2022/04/29 03:15:17;;;;;;;21.63;6.10;;;;;;;;;;5013242;28;93217;-66
2022/04/29 03:20:30;;;;;;;17.00;6.10;;;;;;;;;;4994463;28;92788;-66
2022/04/29 03:22:56;;;;;;;14.45;5.57;;;;;;;;;;4995709;28;94779;-66
2022/04/29 03:25:22;;;;;;;19.73;6.05;;;;;;;;;;4994029;28;92418;-66
2022/04/29 03:27:49;;;;;;;22.65;6.70;;;;;;;;;;4997616;28;93165;-66
2022/04/29 03:30:15;;;;;;;14.70;6.10;;;;;;;;;;4997669;28;94273;-66
2022/04/29 03:32:49;;;;;;;9.88;5.75;;;;;;;;;;4997694;28;92408;-66
2022/04/29 03:35:15;;;;;;;11.07;5.25;;;;;;;;;;4997705;28;93886;-66
2022/04/29 03:37:41;;;;;;;20.77;6.00;;;;;;;;;;4997535;28;94432;-66
2022/04/29 03:40:08;;;;;;;14.95;5.68;;;;;;;;;;4998024;28;91771;-66
2022/04/29 03:42:34;;;;;;;26.50;6.05;;;;;;;;;;4997590;28;92380;-66
2022/04/29 03:45:00;;;;;;;14.65;5.78;;;;;;;;;;4999965;28;93194;-67
2022/04/29 03:47:27;;;;;;;15.70;6.15;;;;;;;;;;4995998;28;94831;-67
2022/04/29 03:49:54;;;;;;;16.55;5.15;;;;;;;;;;4997227;28;94464;-66
2022/04/29 03:52:20;;;;;;;19.63;6.25;;;;;;;;;;4997248;28;92649;-66
2022/04/29 03:54:46;;;;;;;11.35;5.63;;;;;;;;;;5000506;28;93256;-67
2022/04/29 03:57:13;;;;;;;23.10;6.78;;;;;;;;;;5017025;28;93547;-66
2022/04/29 03:59:39;;;;;;;18.75;6.03;;;;;;;;;;5016704;28;92413;-66
2022/04/29 04:02:06;;;;;;;16.65;6.45;;;;;;;;;;5017100;28;93470;-66
2022/04/29 04:04:32;;;;;;;16.52;5.90;;;;;;;;;;5020619;28;92989;-66
2022/04/29 04:07:02;;;;;;;20.30;6.10;;;;;;;;;;5016678;28;92411;-66
2022/04/29 04:09:28;;;;;;;24.23;6.53;;;;;;;;;;5016634;28;93427;-67
2022/04/29 04:11:55;;;;;;;16.25;6.30;;;;;;;;;;5015484;28;94807;-66
2022/04/29 04:14:21;;;;;;;15.93;6.03;;;;;;;;;;5016906;28;95744;-67
2022/04/29 04:16:47;;;;;;;15.80;5.32;;;;;;;;;;5000670;28;92415;-67
2022/04/29 04:19:14;;;;;;;14.98;5.43;;;;;;;;;;4996820;28;92411;-67
2022/04/29 04:21:40;;;;;;;21.30;6.28;;;;;;;;;;4997105;28;94152;-66
2022/04/29 04:24:07;;;;;;;16.27;5.85;;;;;;;;;;4996860;28;94556;-66
2022/04/29 04:26:33;;;;;;;14.85;5.68;;;;;;;;;;4999301;28;92408;-66
2022/04/29 04:29:00;;;;;;;23.77;6.60;;;;;;;;;;4997211;28;92474;-66
2022/04/29 04:31:26;;;;;;;17.42;5.95;;;;;;;;;;4996496;28;92422;-66
2022/04/29 04:33:53;;;;;;;17.33;6.68;;;;;;;;;;4996559;28;93573;-67
2022/04/29 04:36:19;;;;;;;13.48;6.38;;;;;;;;;;4994083;28;95912;-66
2022/04/29 04:38:47;;;;;;;15.13;6.35;;;;;;;;;;4995884;28;92424;-66
2022/04/29 04:41:17;;;;;;;14.50;6.25;;;;;;;;;;4996122;28;93213;-66
2022/04/29 04:43:44;;;;;;;13.57;5.85;;;;;;;;;;4996533;28;94277;-66
2022/04/29 04:46:12;;;;;;;19.50;6.15;;;;;;;;;;4996314;28;92449;-66
2022/04/29 04:48:38;;;;;;;20.42;6.97;;;;;;;;;;5014713;28;94396;-66
2022/04/29 04:51:05;;;;;;;13.95;6.03;;;;;;;;;;4996223;28;92430;-67
2022/04/29 04:53:31;;;;;;;12.95;5.88;;;;;;;;;;4996739;28;93041;-66
2022/04/29 04:55:57;;;;;;;16.42;6.38;;;;;;;;;;5009144;28;93209;-66
2022/04/29 04:58:23;;;;;;;14.88;5.97;;;;;;;;;;5015995;28;92442;-67
2022/04/29 05:00:50;;;;;;;14.40;5.97;;;;;;;;;;5014348;28;95112;-67
2022/04/29 05:03:16;;;;;;;15.80;6.30;;;;;;;;;;5016302;28;94467;-66
2022/04/29 05:05:43;;;;;;;22.92;6.30;;;;;;;;;;5015842;28;92407;-66
2022/04/29 05:08:09;;;;;;;18.80;6.30;;;;;;;;;;5015963;28;93268;-66
2022/04/29 05:10:36;;;;;;;17.40;5.75;;;;;;;;;;5018877;28;93214;-66
2022/04/29 05:13:02;;;;;;;20.10;6.30;;;;;;;;;;5016146;28;93232;-67
2022/04/29 05:15:28;;;;;;;24.60;6.32;;;;;;;;;;5010973;28;93479;-66
2022/04/29 05:17:55;;;;;;;22.73;7.15;;;;;;;;;;4996157;28;91780;-66
2022/04/29 05:20:21;;;;;;;17.83;5.50;;;;;;;;;;4996242;28;93460;-66
2022/04/29 05:22:47;;;;;;;20.17;5.45;;;;;;;;;;4995377;28;93425;-66
2022/04/29 05:25:14;;;;;;;21.00;5.97;;;;;;;;;;4994293;28;94848;-66
2022/04/29 05:27:40;;;;;;;19.77;6.10;;;;;;;;;;5010926;28;95614;-66
2022/04/29 05:30:08;;;;;;;17.38;5.55;;;;;;;;;;4995865;28;94440;-67
2022/04/29 05:32:35;;;;;;;16.02;5.97;;;;;;;;;;4998907;28;92372;-67
2022/04/29 05:35:03;;;;;;;14.68;5.82;;;;;;;;;;4995356;28;94288;-66
2022/04/29 05:37:29;;;;;;;15.10;6.28;;;;;;;;;;4995701;28;92434;-66
2022/04/29 05:42:41;;;;;;;17.42;6.50;;;;;;;;;;4995924;28;91688;-66
2022/04/29 05:45:08;;;;;;;30.63;6.15;;;;;;;;;;4995686;28;92430;-66
2022/04/29 05:47:34;;;;;;;15.50;6.13;;;;;;;;;;4995438;28;92832;-66
2022/04/29 05:50:00;;;;;;;13.38;5.72;;;;;;;;;;4993426;28;95918;-66
2022/04/29 05:52:27;;;;;;;11.85;5.88;;;;;;;;;;4995257;28;92457;-66
2022/04/29 05:54:53;;;;;;;17.20;6.07;;;;;;;;;;5002681;28;93141;-66
2022/04/29 05:57:19;;;;;;;17.10;5.82;;;;;;;;;;5014993;28;92407;-68
2022/04/29 05:59:45;;;;;;;28.98;6.40;;;;;;;;;;5015318;28;92959;-66
2022/04/29 06:02:12;;;;;;;15.00;5.28;;;;;;;;;;5030598;28;94463;-66
2022/04/29 06:04:38;;;;;;;19.02;5.88;;;;;;;;;;5015115;28;92472;-67
2022/04/29 06:07:04;;;;;;;31.17;6.93;;;;;;;;;;5015348;28;93154;-66
2022/04/29 06:09:31;;;;;;;15.90;6.00;;;;;;;;;;5014952;28;93352;-66
2022/04/29 06:11:57;;;;;;;19.75;6.72;;;;;;;;;;5014893;28;92381;-66
2022/04/29 06:14:27;;;;;;;20.05;6.55;;;;;;;;;;5016456;28;94821;-66
2022/04/29 06:16:53;;;;;;;15.52;6.07;;;;;;;;;;4996911;28;92748;-66
2022/04/29 06:19:19;;;;;;;15.05;5.38;;;;;;;;;;4994723;28;93737;-67
2022/04/29 06:21:46;;;;;;;16.10;6.28;;;;;;;;;;4994648;28;94254;-66
2022/04/29 06:24:12;;;;;;;14.90;5.70;;;;;;;;;;4994765;28;92432;-66
2022/04/29 06:26:38;;;;;;;15.93;6.20;;;;;;;;;;4994581;28;93086;-66
2022/04/29 06:29:05;;;;;;;21.33;6.07;;;;;;;;;;4992969;28;92689;-66
2022/04/29 06:31:31;;;;;;;16.17;6.10;;;;;;;;;;4995391;28;92074;-66
2022/04/29 06:33:57;;;;;;;17.35;6.03;;;;;;;;;;4995057;28;92396;-66
2022/04/29 06:36:24;;;;;;;20.38;6.28;;;;;;;;;;4997001;28;93441;-67
2022/04/29 06:38:50;;;;;;;15.57;6.20;;;;;;;;;;4993189;28;94805;-66
2022/04/29 06:41:16;;;;;;;23.35;6.93;;;;;;;;;;4994777;28;93816;-66
2022/04/29 06:43:43;;;;;;;20.33;6.32;;;;;;;;;;4994410;28;92437;-66
2022/04/29 06:46:10;;;;;;;22.65;6.05;;;;;;;;;;4994016;28;92834;-67
2022/04/29 06:48:36;;;;;;;23.92;7.03;;;;;;;;;;4994371;28;93423;-66
2022/04/29 06:51:03;;;;;;;24.30;7.07;;;;;;;;;;4994731;28;92391;-66
2022/04/29 06:53:30;;;;;;;17.80;7.05;;;;;;;;;;4994455;28;92387;-67
2022/04/29 06:55:56;;;;;;;18.67;6.35;;;;;;;;;;5008357;28;93516;-66
2022/04/29 06:58:22;;;;;;;19.20;5.80;;;;;;;;;;5017731;28;92481;-66
2022/04/29 07:00:49;;;;;;;17.15;5.97;;;;;;;;;;5013048;28;93644;-66
2022/04/29 07:03:15;;;;;;;15.65;6.00;;;;;;;;;;5012716;28;94798;-66
2022/04/29 07:05:42;;;;;;;12.55;5.70;;;;;;;;;;5014431;28;96593;-67
2022/04/29 07:08:09;;;;;;;22.98;7.45;;;;;;;;;;5014291;28;94368;-66
2022/04/29 07:10:35;;;;;;;23.20;6.80;;;;;;;;;;5014332;28;92412;-67
2022/04/29 07:13:03;;;;;;;16.25;6.82;;;;;;;;;;5014408;28;94260;-66
2022/04/29 07:15:30;;;;;;;19.35;6.05;;;;;;;;;;5008431;28;93612;-67
2022/04/29 07:17:56;;;;;;;13.45;5.88;;;;;;;;;;4994484;28;92793;-67
2022/04/29 07:20:22;;;;;;;21.13;6.35;;;;;;;;;;4997459;28;93143;-66
2022/04/29 07:22:49;;;;;;;21.55;6.22;;;;;;;;;;4994075;28;92401;-66
2022/04/29 07:25:15;;;;;;;14.63;5.90;;;;;;;;;;4994337;28;93341;-66
2022/04/29 07:27:42;;;;;;;13.45;6.10;;;;;;;;;;4991983;28;95862;-66
2022/04/29 07:30:10;;;;;;;14.77;5.57;;;;;;;;;;4994138;28;92791;-66
2022/04/29 07:32:36;;;;;;;19.55;5.97;;;;;;;;;;4994038;28;93399;-66
2022/04/29 07:43:17;;;;;;;16.73;5.65;;;;;;;;;;4996895;28;92412;-66
2022/04/29 07:45:43;;;;;;;21.35;5.70;;;;;;;;;;4994485;28;93878;-66
2022/04/29 07:48:11;;;;;;;27.80;6.50;;;;;;;;;;4993752;28;94703;-67
2022/04/29 07:50:38;;;;;;;17.02;6.13;;;;;;;;;;4993819;28;92439;-66
2022/04/29 07:53:04;;;;;;;18.75;6.13;;;;;;;;;;4992114;28;95040;-66
2022/04/29 07:55:30;;;;;;;13.85;5.70;;;;;;;;;;5002934;28;93234;-67
2022/04/29 07:57:57;;;;;;;18.38;6.38;;;;;;;;;;5014042;28;92477;-67
2022/04/29 08:00:23;;;;;;;17.38;6.03;;;;;;;;;;5014224;28;94265;-66
2022/04/29 08:02:49;;;;;;;13.38;6.22;;;;;;;;;;5013485;28;94431;-66
2022/04/29 08:05:18;;;;;;;18.38;5.82;;;;;;;;;;5016673;28;92440;-66
2022/04/29 08:07:44;;;;;;;16.67;6.60;;;;;;;;;;5013464;28;93811;-67
2022/04/29 08:10:10;;;;;;;19.58;6.35;;;;;;;;;;5014409;28;91626;-67
2022/04/29 08:12:37;;;;;;;13.60;5.40;;;;;;;;;;5014124;28;92767;-67
2022/04/29 08:15:04;;;;;;;14.57;5.65;;;;;;;;;;5015224;28;93325;-67
2022/04/29 08:17:31;;;;;;;25.15;6.65;;;;;;;;;;4995333;28;95211;-66
2022/04/29 08:19:58;;;;;;;17.00;5.65;;;;;;;;;;4996607;28;95286;-66
2022/04/29 08:22:24;;;;;;;14.38;5.72;;;;;;;;;;4996658;28;93456;-66
2022/04/29 08:24:50;;;;;;;19.23;5.85;;;;;;;;;;4999979;28;92499;-66
2022/04/29 08:27:17;;;;;;;15.52;6.22;;;;;;;;;;4996638;28;93545;-67
2022/04/29 08:29:50;;;;;;;12.10;5.95;;;;;;;;;;4996548;28;92388;-66
2022/04/29 08:32:16;;;;;;;19.65;5.43;;;;;;;;;;4996982;28;94291;-66
2022/04/29 08:34:43;;;;;;;13.45;4.75;;;;;;;;;;4997086;28;93835;-66
2022/04/29 08:37:10;;;;;;;14.95;5.35;;;;;;;;;;4996474;28;92461;-66
2022/04/29 08:39:36;;;;;;;16.60;5.18;;;;;;;;;;4996485;28;92799;-67
2022/04/29 08:42:02;;;;;;;17.48;5.63;;;;;;;;;;4994872;28;96765;-66
2022/04/29 08:44:30;;;;;;;19.40;5.90;;;;;;;;;;4996550;28;92362;-66
2022/04/29 08:46:57;;;;;;;21.00;6.07;;;;;;;;;;4999392;28;93214;-67
2022/04/29 08:49:24;;;;;;;19.80;5.95;;;;;;;;;;4996435;28;92431;-66
2022/04/29 08:51:51;;;;;;;15.45;5.78;;;;;;;;;;4996471;28;92511;-67
2022/04/29 08:59:57;;;;;;;18.15;5.78;;;;;;;;;;4976511;28;93208;-67
2022/04/29 09:02:26;;;;;;;15.63;5.68;;;;;;;;;;4976175;28;93476;-67
2022/04/29 09:04:55;;;;;;;15.18;5.97;;;;;;;;;;4976117;28;92464;-66
2022/04/29 09:07:41;;;;;;;15.15;5.85;;;;;;;;;;4975044;28;94769;-66
2022/04/29 09:10:08;;;;;;;18.98;5.57;;;;;;;;;;4979013;28;94015;-67
2022/04/29 09:12:34;;;;;;;21.63;6.60;;;;;;;;;;4976536;28;92939;-66
2022/04/29 09:15:09;;;;;;;23.27;5.65;;;;;;;;;;4977089;28;93412;-66
2022/04/29 09:17:35;;;;;;;18.00;4.95;;;;;;;;;;4995981;28;92363;-67
2022/04/29 09:20:02;;;;;;;16.73;5.90;;;;;;;;;;4996000;28;92988;-67
2022/04/29 09:22:33;;;;;;;21.30;6.60;;;;;;;;;;4995432;28;93465;-67
2022/04/29 09:25:00;;;;;;;17.63;5.97;;;;;;;;;;4995950;28;91736;-66
2022/04/29 09:27:26;;;;;;;12.90;5.53;;;;;;;;;;4996096;28;93501;-66
2022/04/29 09:29:57;;;;;;;12.63;6.10;;;;;;;;;;4994610;28;94266;-66
2022/04/29 09:32:23;;;;;;;21.58;6.40;;;;;;;;;;4997770;28;94759;-67
2022/04/29 09:34:53;;;;;;;20.80;6.30;;;;;;;;;;4995249;28;94483;-66
2022/04/29 09:37:21;;;;;;;13.73;5.28;;;;;;;;;;4995514;28;92465;-67
2022/04/29 09:39:56;;;;;;;19.88;6.20;;;;;;;;;;4995473;28;93161;-67
2022/04/29 09:42:23;;;;;;;17.42;6.03;;;;;;;;;;4995601;28;93327;-66
2022/04/29 09:44:50;;;;;;;24.42;6.15;;;;;;;;;;4994048;28;92611;-66
2022/04/29 09:47:20;;;;;;;17.27;5.60;;;;;;;;;;4995983;28;92757;-67
2022/04/29 09:49:53;;;;;;;13.73;5.17;;;;;;;;;;4995917;28;92703;-67
2022/04/29 09:52:20;;;;;;;12.13;5.57;;;;;;;;;;4995620;28;92702;-66
2022/04/29 09:54:46;;;;;;;16.73;5.57;;;;;;;;;;5002184;28;94248;-67
2022/04/29 09:57:15;;;;;;;14.23;5.45;;;;;;;;;;5013711;28;94937;-66
2022/04/29 09:59:43;;;;;;;12.20;5.60;;;;;;;;;;5013873;28;96094;-69
2022/04/29 10:02:10;;;;;;;16.63;6.15;;;;;;;;;;5014872;28;94458;-67
2022/04/29 10:04:39;;;;;;;17.63;6.72;;;;;;;;;;5015237;28;92451;-66
2022/04/29 10:07:08;;;;;;;20.05;6.57;;;;;;;;;;5015356;28;93171;-67
2022/04/29 10:09:35;;;;;;;12.25;6.50;;;;;;;;;;5014952;28;92601;-66
2022/04/29 10:12:03;;;;;;;17.25;5.88;;;;;;;;;;5015596;28;92328;-66
2022/04/29 10:14:30;;;;;;;17.80;6.22;;;;;;;;;;5018330;28;93388;-66
2022/04/29 10:22:33;;;;;;;15.57;6.30;;;;;;;;;;4993335;28;96022;-66
2022/04/29 10:25:03;;;;;;;14.90;6.63;;;;;;;;;;4995029;28;92432;-67
2022/04/29 10:27:30;;;;;;;19.20;6.35;;;;;;;;;;4994973;28;92765;-67
2022/04/29 10:29:56;;;;;;;18.55;6.82;;;;;;;;;;4995086;28;93444;-66
2022/04/29 10:32:23;;;;;;;21.17;7.68;;;;;;;;;;5005917;28;92454;-67
2022/04/29 10:34:54;;;;;;;23.38;7.28;;;;;;;;;;5004417;28;92443;-66
2022/04/29 10:37:30;;;;;;;19.25;6.97;;;;;;;;;;4997172;28;93087;-67
2022/04/29 10:40:06;;;;;;;18.90;6.82;;;;;;;;;;5011739;28;93583;-66
2022/04/29 10:42:58;;;;;;;19.17;6.82;;;;;;;;;;5014330;28;93397;-66
2022/04/29 10:45:24;;;;;;;14.50;6.28;;;;;;;;;;5010415;28;92431;-66
2022/04/29 10:47:50;;;;;;;10.63;6.40;;;;;;;;;;5004793;28;95061;-66
2022/04/29 10:50:29;;;;;;;12.25;6.20;;;;;;;;;;5014750;28;94574;-67
2022/04/29 10:52:59;;;;;;;21.50;6.80;;;;;;;;;;5014645;28;92461;-67
2022/04/29 10:55:26;;;;;;;13.13;6.13;;;;;;;;;;5014843;28;93162;-67
2022/04/29 10:57:56;;;;;;;18.92;6.10;;;;;;;;;;5014397;28;93214;-66
2022/04/29 11:00:23;;;;;;;12.07;5.88;;;;;;;;;;5017324;28;92482;-67
2022/04/29 11:02:50;;;;;;;14.75;6.50;;;;;;;;;;5014520;28;94490;-66
2022/04/29 11:05:36;;;;;;;16.83;6.32;;;;;;;;;;5000483;28;91736;-67
2022/04/29 11:08:09;;;;;;;16.80;6.30;;;;;;;;;;4994604;28;92502;-66
2022/04/29 11:10:56;;;;;;;21.60;5.90;;;;;;;;;;4994286;28;93444;-66
2022/04/29 11:13:26;;;;;;;20.85;5.95;;;;;;;;;;4992898;28;95007;-67
2022/04/29 11:15:52;;;;;;;15.38;6.32;;;;;;;;;;4994033;28;95515;-67
2022/04/29 11:18:20;;;;;;;11.40;5.60;;;;;;;;;;4993892;28;93099;-67
2022/04/29 11:20:48;;;;;;;21.52;6.00;;;;;;;;;;4994371;28;92483;-66
2022/04/29 11:26:09;;;;;;;13.88;5.07;;;;;;;;;;4994320;28;92474;-66
2022/04/29 11:28:36;;;;;;;10.40;4.57;;;;;;;;;;4994517;28;93234;-66
2022/04/29 11:31:03;;;;;;;12.68;5.78;;;;;;;;;;4994218;28;92702;-66
2022/04/29 11:33:30;;;;;;;20.65;5.57;;;;;;;;;;4994219;28;92412;-66
2022/04/29 11:36:01;;;;;;;14.43;4.93;;;;;;;;;;4993718;28;93254;-67
2022/04/29 11:38:29;;;;;;;6.22;4.78;;;;;;;;;;4998676;28;95987;-67
2022/04/29 11:40:55;;;;;;;13.30;4.55;;;;;;;;;;5013966;28;92757;-67
2022/04/29 11:43:22;;;;;;;13.10;4.63;;;;;;;;;;5014075;28;93547;-67
2022/04/29 11:45:58;;;;;;;12.55;4.32;;;;;;;;;;5009347;28;96061;-67
2022/04/29 11:48:24;;;;;;;12.73;5.00;;;;;;;;;;4996629;28;94211;-66
2022/04/29 11:50:51;;;;;;;9.85;5.05;;;;;;;;;;4997066;28;93397;-66
2022/04/29 11:53:18;;;;;;;8.73;5.00;;;;;;;;;;4997489;28;92404;-67
2022/04/29 11:55:49;;;;;;;17.45;4.80;;;;;;;;;;4997612;28;93243;-67
2022/04/29 11:58:16;;;;;;;;;;;;;;;;;;4997336;28;93578;-67
2022/04/29 12:00:48;;;;;;;10.40;4.63;;;;;;;;;;4997841;28;118538;-67
2022/04/29 12:03:22;;;;;;;13.85;5.47;;;;;;;;;;4996107;28;94837;-67
2022/04/29 12:05:48;;;;;;;12.57;5.28;;;;;;;;;;4996801;28;94388;-67
2022/04/29 12:08:15;;;;;;;11.27;4.68;;;;;;;;;;5000122;28;92431;-67
2022/04/29 12:10:42;;;;;;;8.30;5.18;;;;;;;;;;4997123;28;93182;-67
2022/04/29 12:13:09;;;;;;;8.45;5.13;;;;;;;;;;4996969;28;92442;-66
2022/04/29 12:15:36;;;;;;;21.85;5.15;;;;;;;;;;4996784;28;93536;-66
2022/04/29 12:18:03;;;;;;;13.45;5.95;;;;;;;;;;4996417;28;93778;-66
2022/04/29 12:20:42;;;;;;;17.55;6.40;;;;;;;;;;4997289;28;91701;-66
2022/04/29 12:23:08;;;;;;;17.42;5.50;;;;;;;;;;4996893;28;92341;-66
2022/04/29 12:25:37;;;;;;;14.30;6.10;;;;;;;;;;4996556;28;93461;-67
2022/04/29 12:28:11;;;;;;;13.85;5.53;;;;;;;;;;4998178;28;95136;-66
2022/04/29 12:36:09;;;;;;;11.57;5.72;;;;;;;;;;4976243;28;94396;-67
2022/04/29 12:38:36;;;;;;;11.85;5.30;;;;;;;;;;4991635;28;93499;-67
2022/04/29 12:41:15;;;;;;;14.52;5.88;;;;;;;;;;5016583;28;92398;-67
2022/04/29 12:43:42;;;;;;;15.07;6.82;;;;;;;;;;5016896;28;94357;-66
2022/04/29 12:46:21;;;;;;;18.13;5.65;;;;;;;;;;5006340;28;92521;-67
2022/04/29 12:48:48;;;;;;;15.00;6.28;;;;;;;;;;4996360;28;92369;-67
2022/04/29 12:51:28;;;;;;;27.58;6.82;;;;;;;;;;4999565;28;94091;-67
2022/04/29 12:53:55;;;;;;;16.98;6.30;;;;;;;;;;4994916;28;94851;-67
2022/04/29 12:56:22;;;;;;;13.50;6.55;;;;;;;;;;4996534;28;96374;-67
2022/04/29 12:58:49;;;;;;;10.65;6.10;;;;;;;;;;4995438;28;94488;-66
2022/04/29 13:01:15;;;;;;;12.32;6.75;;;;;;;;;;4995762;28;92451;-68
2022/04/29 13:03:47;;;;;;;11.60;6.40;;;;;;;;;;4994930;28;92421;-66
2022/04/29 13:06:13;;;;;;;14.93;5.97;;;;;;;;;;4996194;28;94560;-67
2022/04/29 13:08:39;;;;;;;13.70;6.60;;;;;;;;;;4996172;28;92817;-67
2022/04/29 13:11:06;;;;;;;13.70;6.03;;;;;;;;;;4996891;28;94385;-66
2022/04/29 13:13:32;;;;;;;11.32;5.75;;;;;;;;;;5002837;28;93459;-66
2022/04/29 13:15:58;;;;;;;19.00;6.40;;;;;;;;;;5005997;28;94517;-67
2022/04/29 13:18:25;;;;;;;13.70;6.78;;;;;;;;;;5013989;28;94728;-66
2022/04/29 13:20:52;;;;;;;30.73;7.13;;;;;;;;;;5010473;28;92812;-66
2022/04/29 13:23:18;;;;;;;17.58;7.03;;;;;;;;;;4996137;28;93233;-67
2022/04/29 13:25:45;;;;;;;23.10;6.82;;;;;;;;;;4995647;28;93214;-67
2022/04/29 13:28:11;;;;;;;16.55;6.55;;;;;;;;;;4995869;28;92455;-67
2022/04/29 13:30:41;;;;;;;18.35;7.10;;;;;;;;;;5012018;28;94542;-67
2022/04/29 13:33:07;;;;;;;14.20;6.15;;;;;;;;;;5015695;28;94367;-66
2022/04/29 13:35:35;;;;;;;10.88;6.13;;;;;;;;;;5019022;28;91692;-66
2022/04/29 13:38:01;;;;;;;13.30;6.68;;;;;;;;;;5015294;28;93531;-67
2022/04/29 13:40:27;;;;;;;11.32;6.15;;;;;;;;;;5015595;28;92383;-67
2022/04/29 13:42:54;;;;;;;18.80;6.97;;;;;;;;;;5013741;28;94872;-67
2022/04/29 13:45:23;;;;;;;13.27;6.10;;;;;;;;;;5011391;28;93553;-66
2022/04/29 13:47:49;;;;;;;13.65;6.93;;;;;;;;;;5012228;28;92798;-67
2022/04/29 13:50:15;;;;;;;13.25;6.30;;;;;;;;;;5014285;28;93298;-66
2022/04/29 13:55:50;;;;;;;13.32;6.15;;;;;;;;;;4973189;28;92477;-67
2022/04/29 13:58:17;;;;;;;23.73;7.63;;;;;;;;;;4975810;28;92457;-66
2022/04/29 14:00:46;;;;;;;68.05;10.00;;;;;;;;;;4973271;28;91771;-66
2022/04/29 14:03:14;;;;;;;123.97;12.93;;;;;;;;;;4972472;28;92799;-67
2022/04/29 14:05:41;;;;;;;11.85;6.45;;;;;;;;;;4972525;28;94458;-67
2022/04/29 14:08:08;;;;;;;21.02;6.55;;;;;;;;;;4971274;28;94898;-66
2022/04/29 14:10:35;;;;;;;28.45;6.47;;;;;;;;;;4972680;28;95321;-67
2022/04/29 14:13:02;;;;;;;7.82;5.53;;;;;;;;;;4972566;28;93395;-66
2022/04/29 14:15:28;;;;;;;14.30;6.32;;;;;;;;;;4968056;28;92485;-67
2022/04/29 14:17:54;;;;;;;14.55;5.22;;;;;;;;;;4953113;28;93243;-67
2022/04/29 14:20:21;;;;;;;16.45;6.25;;;;;;;;;;4959310;28;93541;-67
2022/04/29 14:22:48;;;;;;;8.68;5.18;;;;;;;;;;4973204;28;92868;-67
2022/04/29 14:25:16;;;;;;;16.58;5.75;;;;;;;;;;4973226;28;92631;-66
2022/04/29 14:27:42;;;;;;;13.85;6.38;;;;;;;;;;5011885;28;92502;-67
2022/04/29 14:30:10;;;;;;;13.65;5.35;;;;;;;;;;5014709;28;93137;-66
2022/04/29 14:32:36;;;;;;;14.90;5.10;;;;;;;;;;5012941;28;95491;-67
2022/04/29 14:35:04;;;;;;;15.23;5.28;;;;;;;;;;5013903;28;92365;-67
2022/04/29 14:37:35;;;;;;;11.15;5.50;;;;;;;;;;5014821;28;94316;-67
2022/04/29 14:40:03;;;;;;;15.52;5.50;;;;;;;;;;5017927;28;94452;-67
2022/04/29 14:42:29;;;;;;;10.60;5.50;;;;;;;;;;5014866;28;94170;-66
2022/04/29 14:44:55;;;;;;;10.27;5.05;;;;;;;;;;5013873;28;93444;-66
2022/04/29 14:47:22;;;;;;;29.38;6.57;;;;;;;;;;4974853;28;92483;-66
2022/04/29 14:49:49;;;;;;;16.45;6.07;;;;;;;;;;4975281;28;93121;-66
2022/04/29 14:52:15;;;;;;;84.65;8.88;;;;;;;;;;4974383;28;93134;-67
2022/04/29 14:54:47;;;;;;;11.85;4.80;;;;;;;;;;4974776;28;92429;-66
2022/04/29 14:57:14;;;;;;;13.40;4.68;;;;;;;;;;4973384;28;94861;-67
2022/04/29 14:59:40;;;;;;;9.75;4.68;;;;;;;;;;4974227;28;94380;-67
2022/04/29 15:02:06;;;;;;;9.82;4.80;;;;;;;;;;4977813;28;92582;-67
2022/04/29 15:04:33;;;;;;;15.27;5.10;;;;;;;;;;4974582;28;93222;-67
2022/04/29 15:06:59;;;;;;;10.18;5.25;;;;;;;;;;4974225;28;92436;-66
2022/04/29 15:18:00;;;;;;;10.07;4.97;;;;;;;;;;4994196;28;92443;-67